^^
Meteo Knjazevac Station Historical Data
Daily Summary for February 27, 2021 Units:  Both    English   Metric
Daily Weekly Monthly Yearly Custom
  High: Low: Average:
Temperature: 40.1 °F /  4.5 °C 34.7 °F /  1.5 °C 36.7 °F /  2.6 °C
Dew Point: 33.8 °F /  1 °C 30.9 °F /  -0.6 °C 32.3 °F /  0.2 °C
Humidity: 90% 78% 84%
Wind Speed: 6mph /  9.7km/h - 1.9mph /  3.1km/h
Wind Gust: 8mph /  12.9km/h - -
Wind- - WNW
Pressure: 30.27 in /  1024.9 hPa 30.25 in /  1024.3 hPa -
Precipitation: 0.00 in /  0 mm    
Historical Graphs
 
 
Tabular Data for February 27, 2021
Time Temperature Dew Point Pressure Wind Wind Speed Wind Gust Humidity Rainfall Rate (Hourly) solar Conditions
00:00 40.1 °F /  4.5 °C 33.8 °F /  1 °C 30.27in /  1024.9hPa WNW 2mph /  3.2km/h 5mph /  8km/h 78% 0.00in /  0mm 0 W/m2
00:10 39.5 °F /  4.2 °C 33.2 °F /  0.7 °C 30.27in /  1024.9hPa West 3mph /  4.8km/h 6mph /  9.7km/h 78% 0.00in /  0mm 0 W/m2
00:20 39.4 °F /  4.1 °C 33.4 °F /  0.8 °C 30.27in /  1024.9hPa WNW 2mph /  3.2km/h 6mph /  9.7km/h 79% 0.00in /  0mm 0 W/m2
00:30 39.2 °F /  4 °C 33.2 °F /  0.7 °C 30.27in /  1024.9hPa West 1mph /  1.6km/h 3mph /  4.8km/h 79% 0.00in /  0mm 0 W/m2
00:40 38.3 °F /  3.5 °C 32.4 °F /  0.2 °C 30.27in /  1024.9hPa West 2mph /  3.2km/h 3mph /  4.8km/h 79% 0.00in /  0mm 0 W/m2
00:50 37.9 °F /  3.3 °C 32.3 °F /  0.2 °C 30.27in /  1024.9hPa Calm   5mph /  8km/h 80% 0.00in /  0mm 0 W/m2
01:00 37.8 °F /  3.2 °C 32.5 °F /  0.3 °C 30.27in /  1024.9hPa WNW 1mph /  1.6km/h 3mph /  4.8km/h 81% 0.00in /  0mm 0 W/m2
01:10 37.4 °F /  3 °C 32.1 °F /  0.1 °C 30.27in /  1024.9hPa West 2mph /  3.2km/h 4mph /  6.4km/h 81% 0.00in /  0mm 0 W/m2
01:20 37.2 °F /  2.9 °C 32.5 °F /  0.3 °C 30.27in /  1024.9hPa West 2mph /  3.2km/h 5mph /  8km/h 83% 0.00in /  0mm 0 W/m2
01:30 37.2 °F /  2.9 °C 32.5 °F /  0.3 °C 30.27in /  1024.9hPa West 1mph /  1.6km/h 4mph /  6.4km/h 83% 0.00in /  0mm 0 W/m2
01:40 37.2 °F /  2.9 °C 32.5 °F /  0.3 °C 30.27in /  1024.9hPa West 2mph /  3.2km/h 4mph /  6.4km/h 83% 0.00in /  0mm 0 W/m2
01:50 37.4 °F /  3 °C 32.7 °F /  0.4 °C 30.26in /  1024.6hPa NW 1mph /  1.6km/h 4mph /  6.4km/h 83% 0.00in /  0mm 0 W/m2
02:00 37 °F /  2.8 °C 32.4 °F /  0.2 °C 30.26in /  1024.6hPa NW 1mph /  1.6km/h 3mph /  4.8km/h 83% 0.00in /  0mm 0 W/m2
02:10 36.9 °F /  2.7 °C 32.5 °F /  0.3 °C 30.26in /  1024.6hPa WNW 1mph /  1.6km/h 3mph /  4.8km/h 84% 0.00in /  0mm 0 W/m2
02:20 36.5 °F /  2.5 °C 32.1 °F /  0.1 °C 30.26in /  1024.6hPa WNW 1mph /  1.6km/h 4mph /  6.4km/h 84% 0.00in /  0mm 0 W/m2
02:30 36.3 °F /  2.4 °C 31.9 °F /  -0.1 °C 30.26in /  1024.6hPa WNW 2mph /  3.2km/h 4mph /  6.4km/h 84% 0.00in /  0mm 0 W/m2
02:40 36.1 °F /  2.3 °C 32.1 °F /  0.1 °C 30.26in /  1024.6hPa WNW 1mph /  1.6km/h 4mph /  6.4km/h 85% 0.00in /  0mm 0 W/m2
02:50 36 °F /  2.2 °C 31.6 °F /  -0.2 °C 30.26in /  1024.6hPa WNW 1mph /  1.6km/h 3mph /  4.8km/h 84% 0.00in /  0mm 0 W/m2
03:00 35.6 °F /  2 °C 31.5 °F /  -0.3 °C 30.26in /  1024.6hPa WNW 2mph /  3.2km/h 4mph /  6.4km/h 85% 0.00in /  0mm 0 W/m2
03:10 35.3 °F /  1.8 °C 31.2 °F /  -0.4 °C 30.26in /  1024.6hPa West 2mph /  3.2km/h 5mph /  8km/h 85% 0.00in /  0mm 0 W/m2
03:20 35.1 °F /  1.7 °C 31.3 °F /  -0.4 °C 30.26in /  1024.6hPa WNW 2mph /  3.2km/h 5mph /  8km/h 86% 0.00in /  0mm 0 W/m2
03:40 34.7 °F /  1.5 °C 30.9 °F /  -0.6 °C 30.26in /  1024.6hPa West 3mph /  4.8km/h 6mph /  9.7km/h 86% 0.00in /  0mm 0 W/m2
03:50 34.9 °F /  1.6 °C 31.7 °F /  -0.2 °C 30.26in /  1024.6hPa West 3mph /  4.8km/h 6mph /  9.7km/h 88% 0.00in /  0mm 0 W/m2
04:00 35.2 °F /  1.8 °C 32.3 °F /  0.2 °C 30.25in /  1024.3hPa West 6mph /  9.7km/h 8mph /  12.9km/h 89% 0.00in /  0mm 0 W/m2
04:10 35.2 °F /  1.8 °C 32.3 °F /  0.2 °C 30.25in /  1024.3hPa West 1mph /  1.6km/h 8mph /  12.9km/h 89% 0.00in /  0mm 0 W/m2
04:20 35.1 °F /  1.7 °C 32.1 °F /  0.1 °C 30.25in /  1024.3hPa West 3mph /  4.8km/h 5mph /  8km/h 89% 0.00in /  0mm 0 W/m2
04:30 35.1 °F /  1.7 °C 32.1 °F /  0.1 °C 30.26in /  1024.6hPa West 2mph /  3.2km/h 6mph /  9.7km/h 89% 0.00in /  0mm 0 W/m2
04:40 34.9 °F /  1.6 °C 32 °F /  0 °C 30.26in /  1024.6hPa West 3mph /  4.8km/h 6mph /  9.7km/h 89% 0.00in /  0mm 0 W/m2
04:50 35.2 °F /  1.8 °C 32.6 °F /  0.3 °C 30.25in /  1024.3hPa West 3mph /  4.8km/h 6mph /  9.7km/h 90% 0.00in /  0mm 0 W/m2
Knjazevac, Serbia
Compliments of Weather Underground - 2 mb